sensor_id;sensor_type;location;lat;lon;timestamp;temperature;humidity
56322;DHT22;42227;6.376;-10.782;2022-12-07T00:01:56;27.40;99.90
56322;DHT22;42227;6.376;-10.782;2022-12-07T00:04:25;27.70;99.90
56322;DHT22;42227;6.376;-10.782;2022-12-07T00:06:53;27.80;99.90
56322;DHT22;42227;6.376;-10.782;2022-12-07T00:09:22;27.60;99.90
56322;DHT22;42227;6.376;-10.782;2022-12-07T00:11:51;27.40;99.90
56322;DHT22;42227;6.376;-10.782;2022-12-07T00:14:21;27.20;99.90
56322;DHT22;42227;6.376;-10.782;2022-12-07T00:16:51;27.20;99.90
56322;DHT22;42227;6.376;-10.782;2022-12-07T00:19:20;27.40;99.90
56322;DHT22;42227;6.376;-10.782;2022-12-07T00:21:49;27.50;99.90
56322;DHT22;42227;6.376;-10.782;2022-12-07T00:24:20;27.60;99.90
56322;DHT22;42227;6.376;-10.782;2022-12-07T00:26:49;27.50;99.90
56322;DHT22;42227;6.376;-10.782;2022-12-07T00:29:21;27.30;99.90
56322;DHT22;42227;6.376;-10.782;2022-12-07T00:31:50;27.10;99.90
56322;DHT22;42227;6.376;-10.782;2022-12-07T00:34:23;27.10;99.90
56322;DHT22;42227;6.376;-10.782;2022-12-07T00:36:53;27.40;99.90
56322;DHT22;42227;6.376;-10.782;2022-12-07T00:39:21;27.40;99.90
56322;DHT22;42227;6.376;-10.782;2022-12-07T00:41:50;27.20;99.90
56322;DHT22;42227;6.376;-10.782;2022-12-07T00:44:18;27.00;99.90
56322;DHT22;42227;6.376;-10.782;2022-12-07T00:46:46;26.90;99.90
56322;DHT22;42227;6.376;-10.782;2022-12-07T00:49:15;26.80;99.90
56322;DHT22;42227;6.376;-10.782;2022-12-07T00:51:43;26.80;99.90
56322;DHT22;42227;6.376;-10.782;2022-12-07T00:54:11;27.00;99.90
56322;DHT22;42227;6.376;-10.782;2022-12-07T00:56:40;27.20;99.90
56322;DHT22;42227;6.376;-10.782;2022-12-07T00:59:12;27.10;99.90
56322;DHT22;42227;6.376;-10.782;2022-12-07T01:01:41;26.80;99.90
56322;DHT22;42227;6.376;-10.782;2022-12-07T01:04:10;26.50;99.90
56322;DHT22;42227;6.376;-10.782;2022-12-07T01:06:38;26.30;99.90
56322;DHT22;42227;6.376;-10.782;2022-12-07T01:09:07;26.50;99.90
56322;DHT22;42227;6.376;-10.782;2022-12-07T01:11:35;26.80;99.90
56322;DHT22;42227;6.376;-10.782;2022-12-07T01:14:03;26.90;99.90
56322;DHT22;42227;6.376;-10.782;2022-12-07T01:16:32;26.60;99.90
56322;DHT22;42227;6.376;-10.782;2022-12-07T01:19:01;26.40;99.90
56322;DHT22;42227;6.376;-10.782;2022-12-07T01:21:33;26.30;99.90
56322;DHT22;42227;6.376;-10.782;2022-12-07T01:24:02;26.20;99.90
56322;DHT22;42227;6.376;-10.782;2022-12-07T01:26:30;26.30;99.90
56322;DHT22;42227;6.376;-10.782;2022-12-07T01:28:59;26.50;99.90
56322;DHT22;42227;6.376;-10.782;2022-12-07T01:31:28;26.40;99.90
56322;DHT22;42227;6.376;-10.782;2022-12-07T01:33:59;26.30;99.90
56322;DHT22;42227;6.376;-10.782;2022-12-07T01:36:30;26.10;99.90
56322;DHT22;42227;6.376;-10.782;2022-12-07T01:39:02;26.10;99.90
56322;DHT22;42227;6.376;-10.782;2022-12-07T01:41:34;26.30;99.90
56322;DHT22;42227;6.376;-10.782;2022-12-07T01:44:25;26.40;99.90
56322;DHT22;42227;6.376;-10.782;2022-12-07T01:47:00;26.50;99.90
56322;DHT22;42227;6.376;-10.782;2022-12-07T01:49:37;26.20;99.90
56322;DHT22;42227;6.376;-10.782;2022-12-07T01:54:45;25.90;99.90
56322;DHT22;42227;6.376;-10.782;2022-12-07T01:57:16;25.90;99.90
56322;DHT22;42227;6.376;-10.782;2022-12-07T01:59:47;26.20;99.90
56322;DHT22;42227;6.376;-10.782;2022-12-07T02:02:24;26.30;99.90
56322;DHT22;42227;6.376;-10.782;2022-12-07T02:04:54;26.20;99.90
56322;DHT22;42227;6.376;-10.782;2022-12-07T02:07:24;26.00;99.90
56322;DHT22;42227;6.376;-10.782;2022-12-07T02:09:54;25.90;99.90
56322;DHT22;42227;6.376;-10.782;2022-12-07T02:12:23;25.90;99.90
56322;DHT22;42227;6.376;-10.782;2022-12-07T02:14:52;26.00;99.90
56322;DHT22;42227;6.376;-10.782;2022-12-07T02:17:25;26.20;99.90
56322;DHT22;42227;6.376;-10.782;2022-12-07T02:20:21;26.20;99.90
56322;DHT22;42227;6.376;-10.782;2022-12-07T02:31:23;26.00;99.90
56322;DHT22;42227;6.376;-10.782;2022-12-07T02:34:09;26.10;99.90
56322;DHT22;42227;6.376;-10.782;2022-12-07T02:36:43;26.30;99.90
56322;DHT22;42227;6.376;-10.782;2022-12-07T02:39:25;26.10;99.90
56322;DHT22;42227;6.376;-10.782;2022-12-07T02:42:00;25.90;99.90
56322;DHT22;42227;6.376;-10.782;2022-12-07T02:44:31;25.80;99.90
56322;DHT22;42227;6.376;-10.782;2022-12-07T02:47:06;25.80;99.90
56322;DHT22;42227;6.376;-10.782;2022-12-07T02:49:38;26.00;99.90
56322;DHT22;42227;6.376;-10.782;2022-12-07T02:52:07;26.10;99.90
56322;DHT22;42227;6.376;-10.782;2022-12-07T02:54:36;26.10;99.90
56322;DHT22;42227;6.376;-10.782;2022-12-07T02:57:14;25.90;99.90
56322;DHT22;42227;6.376;-10.782;2022-12-07T03:00:03;25.80;99.90
56322;DHT22;42227;6.376;-10.782;2022-12-07T03:02:58;25.70;99.90
56322;DHT22;42227;6.376;-10.782;2022-12-07T03:05:59;26.00;99.90
56322;DHT22;42227;6.376;-10.782;2022-12-07T03:08:51;26.20;99.90
56322;DHT22;42227;6.376;-10.782;2022-12-07T03:11:41;26.00;99.90
56322;DHT22;42227;6.376;-10.782;2022-12-07T03:16:57;25.70;99.90
56322;DHT22;42227;6.376;-10.782;2022-12-07T03:19:27;25.70;99.90
56322;DHT22;42227;6.376;-10.782;2022-12-07T03:22:05;25.90;99.90
56322;DHT22;42227;6.376;-10.782;2022-12-07T03:24:53;25.90;99.90
56322;DHT22;42227;6.376;-10.782;2022-12-07T03:27:30;25.90;99.90
56322;DHT22;42227;6.376;-10.782;2022-12-07T03:30:06;25.70;99.90
56322;DHT22;42227;6.376;-10.782;2022-12-07T03:32:59;25.70;99.90
56322;DHT22;42227;6.376;-10.782;2022-12-07T03:36:09;25.70;99.90
56322;DHT22;42227;6.376;-10.782;2022-12-07T03:39:03;25.70;99.90
56322;DHT22;42227;6.376;-10.782;2022-12-07T03:41:35;26.00;99.90
56322;DHT22;42227;6.376;-10.782;2022-12-07T03:44:12;25.90;99.90
56322;DHT22;42227;6.376;-10.782;2022-12-07T03:50:11;25.60;99.90
56322;DHT22;42227;6.376;-10.782;2022-12-07T03:53:05;25.50;99.90
56322;DHT22;42227;6.376;-10.782;2022-12-07T03:55:39;25.60;99.90
56322;DHT22;42227;6.376;-10.782;2022-12-07T03:58:15;25.80;99.90
56322;DHT22;42227;6.376;-10.782;2022-12-07T04:00:44;25.70;99.90
56322;DHT22;42227;6.376;-10.782;2022-12-07T04:03:13;25.60;99.90
56322;DHT22;42227;6.376;-10.782;2022-12-07T04:05:42;25.50;99.90
56322;DHT22;42227;6.376;-10.782;2022-12-07T04:08:10;25.50;99.90
56322;DHT22;42227;6.376;-10.782;2022-12-07T04:10:38;25.60;99.90
56322;DHT22;42227;6.376;-10.782;2022-12-07T04:13:07;25.70;99.90
56322;DHT22;42227;6.376;-10.782;2022-12-07T04:15:35;25.70;99.90
56322;DHT22;42227;6.376;-10.782;2022-12-07T04:18:04;25.50;99.90
56322;DHT22;42227;6.376;-10.782;2022-12-07T04:20:32;25.40;99.90
56322;DHT22;42227;6.376;-10.782;2022-12-07T04:23:00;25.40;99.90
56322;DHT22;42227;6.376;-10.782;2022-12-07T04:25:29;25.50;99.90
56322;DHT22;42227;6.376;-10.782;2022-12-07T04:27:57;25.80;99.90
56322;DHT22;42227;6.376;-10.782;2022-12-07T04:30:26;25.80;99.90
56322;DHT22;42227;6.376;-10.782;2022-12-07T04:32:54;25.70;99.90
56322;DHT22;42227;6.376;-10.782;2022-12-07T04:35:22;25.60;99.90
56322;DHT22;42227;6.376;-10.782;2022-12-07T04:37:50;25.50;99.90
56322;DHT22;42227;6.376;-10.782;2022-12-07T04:40:19;25.50;99.90
56322;DHT22;42227;6.376;-10.782;2022-12-07T04:42:47;25.70;99.90
56322;DHT22;42227;6.376;-10.782;2022-12-07T04:45:15;25.70;99.90
56322;DHT22;42227;6.376;-10.782;2022-12-07T04:47:44;25.70;99.90
56322;DHT22;42227;6.376;-10.782;2022-12-07T04:50:12;25.50;99.90
56322;DHT22;42227;6.376;-10.782;2022-12-07T04:52:40;25.40;99.90
56322;DHT22;42227;6.376;-10.782;2022-12-07T04:55:08;25.40;99.90
56322;DHT22;42227;6.376;-10.782;2022-12-07T04:57:37;25.60;99.90
56322;DHT22;42227;6.376;-10.782;2022-12-07T05:00:05;25.70;99.90
56322;DHT22;42227;6.376;-10.782;2022-12-07T05:02:34;25.70;99.90
56322;DHT22;42227;6.376;-10.782;2022-12-07T05:05:02;25.50;99.90
56322;DHT22;42227;6.376;-10.782;2022-12-07T05:07:30;25.40;99.90
56322;DHT22;42227;6.376;-10.782;2022-12-07T05:09:59;25.30;99.90
56322;DHT22;42227;6.376;-10.782;2022-12-07T05:12:27;25.30;99.90
56322;DHT22;42227;6.376;-10.782;2022-12-07T05:14:55;25.60;99.90
56322;DHT22;42227;6.376;-10.782;2022-12-07T05:17:24;25.70;99.90
56322;DHT22;42227;6.376;-10.782;2022-12-07T05:19:52;25.50;99.90
56322;DHT22;42227;6.376;-10.782;2022-12-07T05:22:20;25.50;99.90
56322;DHT22;42227;6.376;-10.782;2022-12-07T05:24:49;25.40;99.90
56322;DHT22;42227;6.376;-10.782;2022-12-07T05:27:17;25.30;99.90
56322;DHT22;42227;6.376;-10.782;2022-12-07T05:29:46;25.40;99.90
56322;DHT22;42227;6.376;-10.782;2022-12-07T05:32:14;25.60;99.90
56322;DHT22;42227;6.376;-10.782;2022-12-07T05:34:43;25.80;99.90
56322;DHT22;42227;6.376;-10.782;2022-12-07T05:37:12;25.70;99.90
56322;DHT22;42227;6.376;-10.782;2022-12-07T05:39:40;25.50;99.90
56322;DHT22;42227;6.376;-10.782;2022-12-07T05:42:10;25.40;99.90
56322;DHT22;42227;6.376;-10.782;2022-12-07T05:44:44;25.30;99.90
56322;DHT22;42227;6.376;-10.782;2022-12-07T05:47:14;25.50;99.90
56322;DHT22;42227;6.376;-10.782;2022-12-07T05:49:42;25.70;99.90
56322;DHT22;42227;6.376;-10.782;2022-12-07T05:52:10;25.80;99.90
56322;DHT22;42227;6.376;-10.782;2022-12-07T05:54:39;25.60;99.90
56322;DHT22;42227;6.376;-10.782;2022-12-07T05:57:07;25.50;99.90
56322;DHT22;42227;6.376;-10.782;2022-12-07T05:59:35;25.50;99.90
56322;DHT22;42227;6.376;-10.782;2022-12-07T06:02:06;25.50;99.90
56322;DHT22;42227;6.376;-10.782;2022-12-07T06:04:41;25.70;99.90
56322;DHT22;42227;6.376;-10.782;2022-12-07T06:07:11;25.90;99.90
56322;DHT22;42227;6.376;-10.782;2022-12-07T06:09:40;25.70;99.90
56322;DHT22;42227;6.376;-10.782;2022-12-07T06:12:15;25.50;99.90
56322;DHT22;42227;6.376;-10.782;2022-12-07T06:14:44;25.40;99.90
56322;DHT22;42227;6.376;-10.782;2022-12-07T06:17:13;25.30;99.90
56322;DHT22;42227;6.376;-10.782;2022-12-07T06:19:42;25.40;99.90
56322;DHT22;42227;6.376;-10.782;2022-12-07T06:22:11;25.50;99.90
56322;DHT22;42227;6.376;-10.782;2022-12-07T06:24:40;25.50;99.90
56322;DHT22;42227;6.376;-10.782;2022-12-07T06:27:09;25.40;99.90
56322;DHT22;42227;6.376;-10.782;2022-12-07T06:29:38;25.30;99.90
56322;DHT22;42227;6.376;-10.782;2022-12-07T06:32:06;25.30;99.90
56322;DHT22;42227;6.376;-10.782;2022-12-07T06:34:35;25.20;99.90
56322;DHT22;42227;6.376;-10.782;2022-12-07T06:37:03;25.30;99.90
56322;DHT22;42227;6.376;-10.782;2022-12-07T06:39:31;25.60;99.90
56322;DHT22;42227;6.376;-10.782;2022-12-07T06:42:00;25.70;99.90
56322;DHT22;42227;6.376;-10.782;2022-12-07T06:44:28;25.50;99.90
56322;DHT22;42227;6.376;-10.782;2022-12-07T06:46:56;25.30;99.90
56322;DHT22;42227;6.376;-10.782;2022-12-07T06:49:45;25.20;99.90
56322;DHT22;42227;6.376;-10.782;2022-12-07T06:52:13;25.10;99.90
56322;DHT22;42227;6.376;-10.782;2022-12-07T06:54:42;25.40;99.90
56322;DHT22;42227;6.376;-10.782;2022-12-07T06:57:10;25.70;99.90
56322;DHT22;42227;6.376;-10.782;2022-12-07T06:59:38;25.90;99.90
56322;DHT22;42227;6.376;-10.782;2022-12-07T07:02:08;25.70;99.90
56322;DHT22;42227;6.376;-10.782;2022-12-07T07:04:37;25.60;99.90
56322;DHT22;42227;6.376;-10.782;2022-12-07T07:07:05;25.40;99.90
56322;DHT22;42227;6.376;-10.782;2022-12-07T07:09:34;25.50;99.90
56322;DHT22;42227;6.376;-10.782;2022-12-07T07:12:02;25.70;99.90
56322;DHT22;42227;6.376;-10.782;2022-12-07T07:14:32;25.90;99.90
56322;DHT22;42227;6.376;-10.782;2022-12-07T07:17:05;25.90;99.90
56322;DHT22;42227;6.376;-10.782;2022-12-07T07:19:33;25.60;99.90
56322;DHT22;42227;6.376;-10.782;2022-12-07T07:22:02;25.50;99.90
56322;DHT22;42227;6.376;-10.782;2022-12-07T07:24:31;25.40;99.90
56322;DHT22;42227;6.376;-10.782;2022-12-07T07:26:59;25.60;99.90
56322;DHT22;42227;6.376;-10.782;2022-12-07T07:29:28;25.80;99.90
56322;DHT22;42227;6.376;-10.782;2022-12-07T07:31:57;26.10;99.90
56322;DHT22;42227;6.376;-10.782;2022-12-07T07:34:33;26.00;99.90
56322;DHT22;42227;6.376;-10.782;2022-12-07T07:37:02;26.10;99.90
56322;DHT22;42227;6.376;-10.782;2022-12-07T07:39:30;26.10;99.90
56322;DHT22;42227;6.376;-10.782;2022-12-07T07:41:58;26.30;99.90
56322;DHT22;42227;6.376;-10.782;2022-12-07T07:44:27;26.80;99.90
56322;DHT22;42227;6.376;-10.782;2022-12-07T07:47:02;27.60;99.90
56322;DHT22;42227;6.376;-10.782;2022-12-07T07:49:30;28.30;99.90
56322;DHT22;42227;6.376;-10.782;2022-12-07T07:51:58;29.10;99.90
56322;DHT22;42227;6.376;-10.782;2022-12-07T07:54:28;30.10;99.90
56322;DHT22;42227;6.376;-10.782;2022-12-07T07:56:56;30.40;99.90
56322;DHT22;42227;6.376;-10.782;2022-12-07T07:59:25;30.90;99.90
56322;DHT22;42227;6.376;-10.782;2022-12-07T08:01:53;30.90;99.90
56322;DHT22;42227;6.376;-10.782;2022-12-07T08:04:22;30.70;99.90
56322;DHT22;42227;6.376;-10.782;2022-12-07T08:06:50;31.70;99.90
56322;DHT22;42227;6.376;-10.782;2022-12-07T08:09:19;32.90;99.90
56322;DHT22;42227;6.376;-10.782;2022-12-07T08:11:48;33.30;99.90
56322;DHT22;42227;6.376;-10.782;2022-12-07T08:14:16;33.60;99.90
56322;DHT22;42227;6.376;-10.782;2022-12-07T08:22:27;35.80;99.90
56322;DHT22;42227;6.376;-10.782;2022-12-07T08:24:55;35.70;99.90
56322;DHT22;42227;6.376;-10.782;2022-12-07T08:27:23;35.90;99.90
56322;DHT22;42227;6.376;-10.782;2022-12-07T08:29:52;35.90;99.90
56322;DHT22;42227;6.376;-10.782;2022-12-07T08:32:20;36.20;99.90
56322;DHT22;42227;6.376;-10.782;2022-12-07T08:34:49;36.70;99.90
56322;DHT22;42227;6.376;-10.782;2022-12-07T08:37:17;36.70;99.90
56322;DHT22;42227;6.376;-10.782;2022-12-07T08:39:46;36.90;99.90
56322;DHT22;42227;6.376;-10.782;2022-12-07T08:42:14;37.50;99.90
56322;DHT22;42227;6.376;-10.782;2022-12-07T08:44:45;37.50;99.90
56322;DHT22;42227;6.376;-10.782;2022-12-07T08:47:14;38.10;99.20
56322;DHT22;42227;6.376;-10.782;2022-12-07T08:49:47;37.30;99.60
56322;DHT22;42227;6.376;-10.782;2022-12-07T08:52:17;36.80;99.90
56322;DHT22;42227;6.376;-10.782;2022-12-07T08:54:45;36.80;99.90
56322;DHT22;42227;6.376;-10.782;2022-12-07T08:57:14;34.70;99.90
56322;DHT22;42227;6.376;-10.782;2022-12-07T08:59:42;32.60;99.90
56322;DHT22;42227;6.376;-10.782;2022-12-07T09:02:11;32.50;99.90
56322;DHT22;42227;6.376;-10.782;2022-12-07T09:04:39;32.80;99.90
56322;DHT22;42227;6.376;-10.782;2022-12-07T09:07:08;32.70;99.90
56322;DHT22;42227;6.376;-10.782;2022-12-07T09:09:37;32.40;99.90
56322;DHT22;42227;6.376;-10.782;2022-12-07T09:12:05;32.60;99.90
56322;DHT22;42227;6.376;-10.782;2022-12-07T09:14:34;32.80;99.90
56322;DHT22;42227;6.376;-10.782;2022-12-07T09:17:10;32.50;99.90
56322;DHT22;42227;6.376;-10.782;2022-12-07T09:19:39;31.60;99.90
56322;DHT22;42227;6.376;-10.782;2022-12-07T09:22:08;32.10;99.90
56322;DHT22;42227;6.376;-10.782;2022-12-07T09:24:36;32.10;99.90
56322;DHT22;42227;6.376;-10.782;2022-12-07T09:27:05;31.80;99.90
56322;DHT22;42227;6.376;-10.782;2022-12-07T09:29:33;31.60;99.90
56322;DHT22;42227;6.376;-10.782;2022-12-07T09:32:03;31.40;99.90
56322;DHT22;42227;6.376;-10.782;2022-12-07T09:34:38;31.50;99.90
56322;DHT22;42227;6.376;-10.782;2022-12-07T09:37:07;31.70;99.90
56322;DHT22;42227;6.376;-10.782;2022-12-07T09:39:39;31.90;99.90
56322;DHT22;42227;6.376;-10.782;2022-12-07T09:44:56;31.70;99.90
56322;DHT22;42227;6.376;-10.782;2022-12-07T09:47:26;31.70;99.90
56322;DHT22;42227;6.376;-10.782;2022-12-07T09:50:03;31.40;99.90
56322;DHT22;42227;6.376;-10.782;2022-12-07T09:52:32;31.60;99.90
56322;DHT22;42227;6.376;-10.782;2022-12-07T09:55:19;31.40;99.90
56322;DHT22;42227;6.376;-10.782;2022-12-07T09:57:50;31.20;99.90
56322;DHT22;42227;6.376;-10.782;2022-12-07T10:00:21;31.00;99.90
56322;DHT22;42227;6.376;-10.782;2022-12-07T10:02:57;31.10;99.90
56322;DHT22;42227;6.376;-10.782;2022-12-07T10:08:09;31.40;99.90
56322;DHT22;42227;6.376;-10.782;2022-12-07T10:10:40;31.50;99.90
56322;DHT22;42227;6.376;-10.782;2022-12-07T10:13:13;31.80;99.90
56322;DHT22;42227;6.376;-10.782;2022-12-07T10:18:32;31.70;99.90
56322;DHT22;42227;6.376;-10.782;2022-12-07T10:23:31;32.00;99.90
56322;DHT22;42227;6.376;-10.782;2022-12-07T10:26:48;32.10;99.90
56322;DHT22;42227;6.376;-10.782;2022-12-07T10:28:51;32.10;99.90
56322;DHT22;42227;6.376;-10.782;2022-12-07T10:31:22;32.30;99.90
56322;DHT22;42227;6.376;-10.782;2022-12-07T10:34:00;32.20;99.90
56322;DHT22;42227;6.376;-10.782;2022-12-07T10:41:31;31.90;99.90
56322;DHT22;42227;6.376;-10.782;2022-12-07T10:44:00;31.60;99.90
56322;DHT22;42227;6.376;-10.782;2022-12-07T10:50:23;32.20;99.90
56322;DHT22;42227;6.376;-10.782;2022-12-07T10:53:09;32.20;99.90
56322;DHT22;42227;6.376;-10.782;2022-12-07T11:12:43;31.90;99.90
56322;DHT22;42227;6.376;-10.782;2022-12-07T11:15:21;32.00;99.90
56322;DHT22;42227;6.376;-10.782;2022-12-07T11:18:09;31.90;99.90
56322;DHT22;42227;6.376;-10.782;2022-12-07T11:21:03;32.50;99.90
56322;DHT22;42227;6.376;-10.782;2022-12-07T11:23:55;32.60;99.90
56322;DHT22;42227;6.376;-10.782;2022-12-07T11:32:14;31.50;99.90
56322;DHT22;42227;6.376;-10.782;2022-12-07T11:35:03;31.40;99.90
56322;DHT22;42227;6.376;-10.782;2022-12-07T11:37:37;31.70;99.90
56322;DHT22;42227;6.376;-10.782;2022-12-07T11:40:30;31.70;99.90
56322;DHT22;42227;6.376;-10.782;2022-12-07T11:46:14;32.00;99.90
56322;DHT22;42227;6.376;-10.782;2022-12-07T11:48:55;31.80;99.90
56322;DHT22;42227;6.376;-10.782;2022-12-07T11:51:28;31.60;99.90
56322;DHT22;42227;6.376;-10.782;2022-12-07T11:54:11;31.60;99.90
56322;DHT22;42227;6.376;-10.782;2022-12-07T11:56:42;31.50;99.90
56322;DHT22;42227;6.376;-10.782;2022-12-07T11:59:31;31.80;99.90
56322;DHT22;42227;6.376;-10.782;2022-12-07T12:02:14;31.70;99.90
56322;DHT22;42227;6.376;-10.782;2022-12-07T12:07:46;31.40;99.90
56322;DHT22;42227;6.376;-10.782;2022-12-07T12:20:06;31.30;99.90
56322;DHT22;42227;6.376;-10.782;2022-12-07T12:23:22;31.10;99.90
56322;DHT22;42227;6.376;-10.782;2022-12-07T12:25:58;31.10;99.90
56322;DHT22;42227;6.376;-10.782;2022-12-07T12:28:39;31.50;99.90
56322;DHT22;42227;6.376;-10.782;2022-12-07T12:33:59;32.00;99.90
56322;DHT22;42227;6.376;-10.782;2022-12-07T12:47:02;31.60;99.90
56322;DHT22;42227;6.376;-10.782;2022-12-07T12:49:38;31.70;99.90
56322;DHT22;42227;6.376;-10.782;2022-12-07T12:57:35;31.40;99.90
56322;DHT22;42227;6.376;-10.782;2022-12-07T13:00:17;31.40;99.90
56322;DHT22;42227;6.376;-10.782;2022-12-07T13:02:50;31.30;99.90
56322;DHT22;42227;6.376;-10.782;2022-12-07T13:05:21;31.70;99.90
56322;DHT22;42227;6.376;-10.782;2022-12-07T13:07:52;31.60;99.90
56322;DHT22;42227;6.376;-10.782;2022-12-07T13:15:42;31.30;99.90
56322;DHT22;42227;6.376;-10.782;2022-12-07T13:31:41;31.20;99.90
56322;DHT22;42227;6.376;-10.782;2022-12-07T13:37:24;31.30;99.90
56322;DHT22;42227;6.376;-10.782;2022-12-07T13:42:29;31.90;99.90
56322;DHT22;42227;6.376;-10.782;2022-12-07T13:45:24;31.80;99.90
56322;DHT22;42227;6.376;-10.782;2022-12-07T13:47:54;31.50;99.90
56322;DHT22;42227;6.376;-10.782;2022-12-07T13:50:32;31.30;99.90
56322;DHT22;42227;6.376;-10.782;2022-12-07T13:53:01;31.00;99.90
56322;DHT22;42227;6.376;-10.782;2022-12-07T13:55:30;31.30;99.90
56322;DHT22;42227;6.376;-10.782;2022-12-07T13:57:59;31.40;99.90
56322;DHT22;42227;6.376;-10.782;2022-12-07T14:00:29;31.70;99.90
56322;DHT22;42227;6.376;-10.782;2022-12-07T14:03:18;31.70;99.90
56322;DHT22;42227;6.376;-10.782;2022-12-07T14:06:04;31.20;99.90
56322;DHT22;42227;6.376;-10.782;2022-12-07T14:08:34;31.20;99.90
56322;DHT22;42227;6.376;-10.782;2022-12-07T14:11:02;31.20;99.90
56322;DHT22;42227;6.376;-10.782;2022-12-07T14:14:00;31.40;99.90
56322;DHT22;42227;6.376;-10.782;2022-12-07T14:19:05;31.50;99.90
56322;DHT22;42227;6.376;-10.782;2022-12-07T14:21:37;31.50;99.90
56322;DHT22;42227;6.376;-10.782;2022-12-07T14:24:19;31.10;99.90
56322;DHT22;42227;6.376;-10.782;2022-12-07T14:26:51;31.30;99.90
56322;DHT22;42227;6.376;-10.782;2022-12-07T14:29:29;31.10;99.90
56322;DHT22;42227;6.376;-10.782;2022-12-07T14:34:56;31.60;99.90
56322;DHT22;42227;6.376;-10.782;2022-12-07T14:37:25;31.70;99.90
56322;DHT22;42227;6.376;-10.782;2022-12-07T14:39:55;31.70;99.90
56322;DHT22;42227;6.376;-10.782;2022-12-07T14:42:27;31.40;99.90
56322;DHT22;42227;6.376;-10.782;2022-12-07T14:44:58;31.10;99.90
56322;DHT22;42227;6.376;-10.782;2022-12-07T14:47:27;31.10;99.90
56322;DHT22;42227;6.376;-10.782;2022-12-07T14:50:18;31.20;99.90
56322;DHT22;42227;6.376;-10.782;2022-12-07T14:53:03;31.60;99.90
56322;DHT22;42227;6.376;-10.782;2022-12-07T14:55:57;31.40;99.90
56322;DHT22;42227;6.376;-10.782;2022-12-07T14:58:29;31.20;99.90
56322;DHT22;42227;6.376;-10.782;2022-12-07T15:00:58;31.10;99.90
56322;DHT22;42227;6.376;-10.782;2022-12-07T15:03:27;31.00;99.90
56322;DHT22;42227;6.376;-10.782;2022-12-07T15:05:56;31.00;99.90
56322;DHT22;42227;6.376;-10.782;2022-12-07T15:08:27;31.20;99.90
56322;DHT22;42227;6.376;-10.782;2022-12-07T15:10:57;31.30;99.90
56322;DHT22;42227;6.376;-10.782;2022-12-07T15:13:27;31.40;99.90
56322;DHT22;42227;6.376;-10.782;2022-12-07T15:15:57;31.20;99.90
56322;DHT22;42227;6.376;-10.782;2022-12-07T15:18:31;30.90;99.90
56322;DHT22;42227;6.376;-10.782;2022-12-07T15:21:00;30.80;99.90
56322;DHT22;42227;6.376;-10.782;2022-12-07T15:23:28;31.00;99.90
56322;DHT22;42227;6.376;-10.782;2022-12-07T15:25:57;31.30;99.90
56322;DHT22;42227;6.376;-10.782;2022-12-07T15:28:25;31.30;99.90
56322;DHT22;42227;6.376;-10.782;2022-12-07T15:30:54;31.50;99.90
56322;DHT22;42227;6.376;-10.782;2022-12-07T15:33:23;31.20;99.90
56322;DHT22;42227;6.376;-10.782;2022-12-07T15:35:59;31.00;99.90
56322;DHT22;42227;6.376;-10.782;2022-12-07T15:38:30;30.70;99.90
56322;DHT22;42227;6.376;-10.782;2022-12-07T15:41:18;30.80;99.90
56322;DHT22;42227;6.376;-10.782;2022-12-07T15:43:47;31.20;99.90
56322;DHT22;42227;6.376;-10.782;2022-12-07T15:46:16;31.20;99.90
56322;DHT22;42227;6.376;-10.782;2022-12-07T15:48:46;31.20;99.90
56322;DHT22;42227;6.376;-10.782;2022-12-07T15:51:14;31.00;99.90
56322;DHT22;42227;6.376;-10.782;2022-12-07T15:53:49;30.80;99.90
56322;DHT22;42227;6.376;-10.782;2022-12-07T15:56:18;30.60;99.90
56322;DHT22;42227;6.376;-10.782;2022-12-07T15:58:47;30.60;99.90
56322;DHT22;42227;6.376;-10.782;2022-12-07T16:01:19;30.70;99.90
56322;DHT22;42227;6.376;-10.782;2022-12-07T16:03:48;31.20;99.90
56322;DHT22;42227;6.376;-10.782;2022-12-07T16:06:19;31.20;99.90
56322;DHT22;42227;6.376;-10.782;2022-12-07T16:08:51;30.80;99.90
56322;DHT22;42227;6.376;-10.782;2022-12-07T16:11:28;30.50;99.90
56322;DHT22;42227;6.376;-10.782;2022-12-07T16:13:57;30.50;99.90
56322;DHT22;42227;6.376;-10.782;2022-12-07T16:16:28;30.60;99.90
56322;DHT22;42227;6.376;-10.782;2022-12-07T16:18:57;30.70;99.90
56322;DHT22;42227;6.376;-10.782;2022-12-07T16:21:26;30.80;99.90
56322;DHT22;42227;6.376;-10.782;2022-12-07T16:23:57;30.70;99.90
56322;DHT22;42227;6.376;-10.782;2022-12-07T16:26:27;30.50;99.90
56322;DHT22;42227;6.376;-10.782;2022-12-07T16:28:55;30.50;99.90
56322;DHT22;42227;6.376;-10.782;2022-12-07T16:31:25;30.50;99.90
56322;DHT22;42227;6.376;-10.782;2022-12-07T16:33:56;30.50;99.90
56322;DHT22;42227;6.376;-10.782;2022-12-07T16:36:25;30.70;99.90
56322;DHT22;42227;6.376;-10.782;2022-12-07T16:39:14;30.80;99.90
56322;DHT22;42227;6.376;-10.782;2022-12-07T16:41:43;30.50;99.90
56322;DHT22;42227;6.376;-10.782;2022-12-07T16:44:12;30.40;99.90
56322;DHT22;42227;6.376;-10.782;2022-12-07T16:46:41;30.40;99.90
56322;DHT22;42227;6.376;-10.782;2022-12-07T16:49:12;30.40;99.90
56322;DHT22;42227;6.376;-10.782;2022-12-07T16:51:41;30.80;99.90
56322;DHT22;42227;6.376;-10.782;2022-12-07T16:54:12;30.70;99.90
56322;DHT22;42227;6.376;-10.782;2022-12-07T16:56:41;30.80;99.90
56322;DHT22;42227;6.376;-10.782;2022-12-07T16:59:10;30.30;99.90
56322;DHT22;42227;6.376;-10.782;2022-12-07T17:01:38;30.20;99.90
56322;DHT22;42227;6.376;-10.782;2022-12-07T17:04:08;29.90;99.90
56322;DHT22;42227;6.376;-10.782;2022-12-07T17:06:37;30.10;99.90
56322;DHT22;42227;6.376;-10.782;2022-12-07T17:09:08;30.20;99.90
56322;DHT22;42227;6.376;-10.782;2022-12-07T17:11:36;30.30;99.90
56322;DHT22;42227;6.376;-10.782;2022-12-07T17:14:05;30.30;99.90
56322;DHT22;42227;6.376;-10.782;2022-12-07T17:16:34;30.00;99.90
56322;DHT22;42227;6.376;-10.782;2022-12-07T17:19:10;29.70;99.90
56322;DHT22;42227;6.376;-10.782;2022-12-07T17:21:43;29.50;99.90
56322;DHT22;42227;6.376;-10.782;2022-12-07T17:24:14;29.70;99.90
56322;DHT22;42227;6.376;-10.782;2022-12-07T17:26:44;29.90;99.90
56322;DHT22;42227;6.376;-10.782;2022-12-07T17:29:14;30.00;99.90
56322;DHT22;42227;6.376;-10.782;2022-12-07T17:31:44;30.00;99.90
56322;DHT22;42227;6.376;-10.782;2022-12-07T17:34:18;29.80;99.90
56322;DHT22;42227;6.376;-10.782;2022-12-07T17:36:47;29.50;99.90
56322;DHT22;42227;6.376;-10.782;2022-12-07T17:39:17;29.50;99.90
56322;DHT22;42227;6.376;-10.782;2022-12-07T17:41:46;29.60;99.90
56322;DHT22;42227;6.376;-10.782;2022-12-07T17:44:17;29.80;99.90
56322;DHT22;42227;6.376;-10.782;2022-12-07T17:46:48;29.80;99.90
56322;DHT22;42227;6.376;-10.782;2022-12-07T17:49:18;29.90;99.90
56322;DHT22;42227;6.376;-10.782;2022-12-07T17:51:46;29.60;99.90
56322;DHT22;42227;6.376;-10.782;2022-12-07T17:54:15;29.40;99.90
56322;DHT22;42227;6.376;-10.782;2022-12-07T17:56:45;29.10;99.90